sensor_id;sensor_type;location;lat;lon;timestamp;P1;durP1;ratioP1;P2;durP2;ratioP2
62151;SDS011;48139;47.474;19.034;2022-12-07T04:49:01;19.85;;;11.77;;
62151;SDS011;48139;47.474;19.034;2022-12-07T04:52:04;18.45;;;11.30;;
62151;SDS011;48139;47.474;19.034;2022-12-07T04:55:06;16.95;;;11.93;;
62151;SDS011;48139;47.474;19.034;2022-12-07T04:58:10;23.67;;;17.40;;
62151;SDS011;48139;47.474;19.034;2022-12-07T05:01:12;27.35;;;16.58;;
62151;SDS011;48139;47.474;19.034;2022-12-07T05:04:15;22.13;;;14.48;;
62151;SDS011;48139;47.474;19.034;2022-12-07T05:07:19;27.05;;;15.50;;
62151;SDS011;48139;47.474;19.034;2022-12-07T05:10:22;21.67;;;13.45;;
62151;SDS011;48139;47.474;19.034;2022-12-07T05:13:24;20.00;;;14.13;;
62151;SDS011;48139;47.474;19.034;2022-12-07T05:16:27;26.02;;;15.52;;
62151;SDS011;48139;47.474;19.034;2022-12-07T05:19:29;28.38;;;16.08;;
62151;SDS011;48139;47.474;19.034;2022-12-07T05:22:32;24.50;;;16.70;;
62151;SDS011;48139;47.474;19.034;2022-12-07T05:25:34;25.08;;;15.82;;
62151;SDS011;48139;47.474;19.034;2022-12-07T05:28:37;23.52;;;15.95;;
62151;SDS011;48139;47.474;19.034;2022-12-07T05:31:40;23.92;;;14.55;;
62151;SDS011;48139;47.474;19.034;2022-12-07T05:34:43;23.90;;;16.00;;
62151;SDS011;48139;47.474;19.034;2022-12-07T05:37:45;18.08;;;11.73;;
62151;SDS011;48139;47.474;19.034;2022-12-07T05:40:48;24.70;;;15.13;;
62151;SDS011;48139;47.474;19.034;2022-12-07T05:43:50;19.27;;;13.15;;
62151;SDS011;48139;47.474;19.034;2022-12-07T05:46:53;20.23;;;14.63;;
62151;SDS011;48139;47.474;19.034;2022-12-07T05:49:56;20.20;;;15.10;;
62151;SDS011;48139;47.474;19.034;2022-12-07T05:52:59;21.05;;;13.48;;
62151;SDS011;48139;47.474;19.034;2022-12-07T05:56:02;23.33;;;17.15;;
62151;SDS011;48139;47.474;19.034;2022-12-07T05:59:04;22.10;;;15.57;;
62151;SDS011;48139;47.474;19.034;2022-12-07T06:02:25;26.65;;;16.23;;
62151;SDS011;48139;47.474;19.034;2022-12-07T06:05:29;30.00;;;17.17;;
62151;SDS011;48139;47.474;19.034;2022-12-07T06:08:32;26.45;;;18.33;;
62151;SDS011;48139;47.474;19.034;2022-12-07T06:11:35;22.55;;;15.48;;
62151;SDS011;48139;47.474;19.034;2022-12-07T06:14:57;30.25;;;18.65;;
62151;SDS011;48139;47.474;19.034;2022-12-07T06:18:00;25.50;;;16.58;;
62151;SDS011;48139;47.474;19.034;2022-12-07T06:21:02;26.77;;;17.30;;
62151;SDS011;48139;47.474;19.034;2022-12-07T06:24:05;25.13;;;17.10;;
62151;SDS011;48139;47.474;19.034;2022-12-07T06:27:09;25.98;;;17.33;;
62151;SDS011;48139;47.474;19.034;2022-12-07T06:33:14;29.15;;;17.77;;
62151;SDS011;48139;47.474;19.034;2022-12-07T06:36:17;20.20;;;14.77;;
62151;SDS011;48139;47.474;19.034;2022-12-07T06:39:27;25.05;;;14.87;;
62151;SDS011;48139;47.474;19.034;2022-12-07T06:42:30;16.48;;;11.23;;
62151;SDS011;48139;47.474;19.034;2022-12-07T06:45:33;16.17;;;11.35;;
62151;SDS011;48139;47.474;19.034;2022-12-07T06:48:36;21.33;;;12.63;;
62151;SDS011;48139;47.474;19.034;2022-12-07T06:51:38;20.15;;;14.65;;
62151;SDS011;48139;47.474;19.034;2022-12-07T06:54:43;22.45;;;13.25;;
62151;SDS011;48139;47.474;19.034;2022-12-07T06:57:47;18.40;;;10.48;;
62151;SDS011;48139;47.474;19.034;2022-12-07T07:00:49;25.43;;;14.33;;
62151;SDS011;48139;47.474;19.034;2022-12-07T07:03:52;17.73;;;12.40;;
62151;SDS011;48139;47.474;19.034;2022-12-07T07:06:55;20.43;;;13.83;;
62151;SDS011;48139;47.474;19.034;2022-12-07T07:10:01;20.90;;;12.27;;
62151;SDS011;48139;47.474;19.034;2022-12-07T07:13:05;22.37;;;12.18;;
62151;SDS011;48139;47.474;19.034;2022-12-07T07:16:08;18.87;;;10.60;;
62151;SDS011;48139;47.474;19.034;2022-12-07T07:19:12;22.52;;;12.18;;
62151;SDS011;48139;47.474;19.034;2022-12-07T07:22:15;21.07;;;11.43;;
62151;SDS011;48139;47.474;19.034;2022-12-07T07:25:18;17.27;;;11.10;;
62151;SDS011;48139;47.474;19.034;2022-12-07T07:28:20;18.60;;;10.52;;
62151;SDS011;48139;47.474;19.034;2022-12-07T07:31:24;18.83;;;10.98;;
62151;SDS011;48139;47.474;19.034;2022-12-07T07:34:27;16.17;;;10.77;;
62151;SDS011;48139;47.474;19.034;2022-12-07T07:37:30;20.03;;;12.80;;
62151;SDS011;48139;47.474;19.034;2022-12-07T07:40:32;17.25;;;10.35;;
62151;SDS011;48139;47.474;19.034;2022-12-07T07:43:35;16.47;;;11.57;;
62151;SDS011;48139;47.474;19.034;2022-12-07T07:46:37;15.60;;;11.00;;
62151;SDS011;48139;47.474;19.034;2022-12-07T07:49:40;15.93;;;10.00;;
62151;SDS011;48139;47.474;19.034;2022-12-07T07:52:49;17.98;;;11.30;;
62151;SDS011;48139;47.474;19.034;2022-12-07T07:55:53;16.87;;;11.38;;
62151;SDS011;48139;47.474;19.034;2022-12-07T07:58:56;18.50;;;11.80;;
62151;SDS011;48139;47.474;19.034;2022-12-07T08:01:59;19.13;;;10.07;;
62151;SDS011;48139;47.474;19.034;2022-12-07T08:05:01;17.83;;;12.00;;
62151;SDS011;48139;47.474;19.034;2022-12-07T08:08:04;21.20;;;10.90;;
62151;SDS011;48139;47.474;19.034;2022-12-07T08:11:08;21.17;;;12.47;;
62151;SDS011;48139;47.474;19.034;2022-12-07T08:14:11;21.08;;;12.55;;
62151;SDS011;48139;47.474;19.034;2022-12-07T08:17:14;20.10;;;12.37;;
62151;SDS011;48139;47.474;19.034;2022-12-07T08:20:16;19.35;;;11.93;;
62151;SDS011;48139;47.474;19.034;2022-12-07T08:23:19;19.98;;;11.82;;
62151;SDS011;48139;47.474;19.034;2022-12-07T08:26:28;19.50;;;12.30;;
62151;SDS011;48139;47.474;19.034;2022-12-07T08:29:31;17.17;;;11.12;;
62151;SDS011;48139;47.474;19.034;2022-12-07T08:32:34;15.02;;;10.88;;
62151;SDS011;48139;47.474;19.034;2022-12-07T08:35:36;16.90;;;12.13;;
62151;SDS011;48139;47.474;19.034;2022-12-07T08:38:39;21.08;;;11.27;;
62151;SDS011;48139;47.474;19.034;2022-12-07T08:41:57;22.92;;;11.52;;
62151;SDS011;48139;47.474;19.034;2022-12-07T08:45:00;19.95;;;12.75;;
62151;SDS011;48139;47.474;19.034;2022-12-07T08:48:04;19.98;;;12.70;;
62151;SDS011;48139;47.474;19.034;2022-12-07T08:51:10;18.92;;;11.60;;
62151;SDS011;48139;47.474;19.034;2022-12-07T08:54:14;19.05;;;11.10;;
62151;SDS011;48139;47.474;19.034;2022-12-07T08:57:18;18.70;;;11.98;;
62151;SDS011;48139;47.474;19.034;2022-12-07T09:00:22;24.42;;;11.65;;
62151;SDS011;48139;47.474;19.034;2022-12-07T09:03:24;20.77;;;13.13;;
62151;SDS011;48139;47.474;19.034;2022-12-07T09:06:28;17.85;;;11.90;;
62151;SDS011;48139;47.474;19.034;2022-12-07T09:09:30;19.45;;;12.60;;
62151;SDS011;48139;47.474;19.034;2022-12-07T09:12:33;15.60;;;11.63;;
62151;SDS011;48139;47.474;19.034;2022-12-07T09:15:36;21.20;;;12.50;;
62151;SDS011;48139;47.474;19.034;2022-12-07T09:18:39;16.77;;;10.97;;
62151;SDS011;48139;47.474;19.034;2022-12-07T09:21:41;18.52;;;10.77;;
62151;SDS011;48139;47.474;19.034;2022-12-07T09:24:44;15.15;;;10.88;;
62151;SDS011;48139;47.474;19.034;2022-12-07T09:27:47;17.52;;;11.07;;
62151;SDS011;48139;47.474;19.034;2022-12-07T09:30:50;17.73;;;9.88;;
62151;SDS011;48139;47.474;19.034;2022-12-07T09:34:12;15.05;;;9.10;;
62151;SDS011;48139;47.474;19.034;2022-12-07T09:37:15;15.95;;;8.30;;
62151;SDS011;48139;47.474;19.034;2022-12-07T09:40:18;13.70;;;8.13;;
62151;SDS011;48139;47.474;19.034;2022-12-07T09:43:23;15.18;;;9.15;;
62151;SDS011;48139;47.474;19.034;2022-12-07T09:46:27;15.48;;;9.32;;
62151;SDS011;48139;47.474;19.034;2022-12-07T09:49:31;13.60;;;8.63;;
62151;SDS011;48139;47.474;19.034;2022-12-07T09:52:35;14.15;;;8.95;;
62151;SDS011;48139;47.474;19.034;2022-12-07T09:55:40;13.60;;;9.02;;
62151;SDS011;48139;47.474;19.034;2022-12-07T09:58:45;15.45;;;8.30;;
62151;SDS011;48139;47.474;19.034;2022-12-07T10:01:49;13.57;;;8.95;;
62151;SDS011;48139;47.474;19.034;2022-12-07T10:04:52;15.15;;;8.95;;
62151;SDS011;48139;47.474;19.034;2022-12-07T10:07:55;13.80;;;8.50;;
62151;SDS011;48139;47.474;19.034;2022-12-07T10:10:58;15.52;;;8.57;;
62151;SDS011;48139;47.474;19.034;2022-12-07T10:14:12;14.82;;;9.73;;
62151;SDS011;48139;47.474;19.034;2022-12-07T10:17:36;15.30;;;10.43;;
62151;SDS011;48139;47.474;19.034;2022-12-07T10:20:44;13.65;;;8.38;;
62151;SDS011;48139;47.474;19.034;2022-12-07T10:24:01;15.00;;;8.13;;
62151;SDS011;48139;47.474;19.034;2022-12-07T10:27:31;13.40;;;7.65;;
62151;SDS011;48139;47.474;19.034;2022-12-07T10:30:47;13.55;;;7.05;;
62151;SDS011;48139;47.474;19.034;2022-12-07T10:33:54;11.90;;;7.47;;
62151;SDS011;48139;47.474;19.034;2022-12-07T10:40:39;11.75;;;6.00;;
62151;SDS011;48139;47.474;19.034;2022-12-07T10:43:48;10.45;;;6.12;;
62151;SDS011;48139;47.474;19.034;2022-12-07T10:57:22;10.63;;;6.45;;
62151;SDS011;48139;47.474;19.034;2022-12-07T11:01:03;11.30;;;6.20;;
62151;SDS011;48139;47.474;19.034;2022-12-07T11:10:41;11.90;;;7.82;;
62151;SDS011;48139;47.474;19.034;2022-12-07T11:20:53;10.38;;;5.60;;
62151;SDS011;48139;47.474;19.034;2022-12-07T11:24:14;10.55;;;5.05;;
62151;SDS011;48139;47.474;19.034;2022-12-07T11:27:37;13.07;;;7.75;;
62151;SDS011;48139;47.474;19.034;2022-12-07T11:37:34;10.60;;;5.90;;
62151;SDS011;48139;47.474;19.034;2022-12-07T11:40:43;12.40;;;6.65;;
62151;SDS011;48139;47.474;19.034;2022-12-07T11:44:08;9.68;;;5.55;;
62151;SDS011;48139;47.474;19.034;2022-12-07T11:51:02;8.95;;;5.90;;
62151;SDS011;48139;47.474;19.034;2022-12-07T11:54:26;11.00;;;6.32;;
62151;SDS011;48139;47.474;19.034;2022-12-07T11:57:39;11.73;;;6.30;;
62151;SDS011;48139;47.474;19.034;2022-12-07T12:00:46;9.02;;;5.45;;
62151;SDS011;48139;47.474;19.034;2022-12-07T12:07:15;12.37;;;6.03;;
62151;SDS011;48139;47.474;19.034;2022-12-07T12:10:51;10.95;;;6.28;;
62151;SDS011;48139;47.474;19.034;2022-12-07T12:21:33;12.85;;;5.97;;
62151;SDS011;48139;47.474;19.034;2022-12-07T12:24:38;12.65;;;6.25;;
62151;SDS011;48139;47.474;19.034;2022-12-07T12:27:44;12.75;;;6.93;;
62151;SDS011;48139;47.474;19.034;2022-12-07T12:37:55;9.70;;;6.32;;
62151;SDS011;48139;47.474;19.034;2022-12-07T12:45:05;10.30;;;5.72;;
62151;SDS011;48139;47.474;19.034;2022-12-07T12:48:37;8.75;;;5.87;;
62151;SDS011;48139;47.474;19.034;2022-12-07T12:51:48;10.52;;;6.12;;
62151;SDS011;48139;47.474;19.034;2022-12-07T12:55:12;10.20;;;6.93;;
62151;SDS011;48139;47.474;19.034;2022-12-07T12:58:25;10.05;;;6.60;;
62151;SDS011;48139;47.474;19.034;2022-12-07T13:04:48;12.80;;;6.90;;
62151;SDS011;48139;47.474;19.034;2022-12-07T13:07:55;10.95;;;5.93;;
62151;SDS011;48139;47.474;19.034;2022-12-07T13:11:20;10.70;;;6.87;;
62151;SDS011;48139;47.474;19.034;2022-12-07T13:17:57;13.40;;;7.62;;
62151;SDS011;48139;47.474;19.034;2022-12-07T13:21:40;13.13;;;6.30;;
62151;SDS011;48139;47.474;19.034;2022-12-07T13:24:28;11.12;;;6.80;;
62151;SDS011;48139;47.474;19.034;2022-12-07T13:27:34;11.43;;;7.57;;
62151;SDS011;48139;47.474;19.034;2022-12-07T13:34:35;10.43;;;5.05;;
62151;SDS011;48139;47.474;19.034;2022-12-07T13:37:40;10.90;;;6.07;;
62151;SDS011;48139;47.474;19.034;2022-12-07T13:40:42;10.40;;;5.60;;
62151;SDS011;48139;47.474;19.034;2022-12-07T13:44:11;8.48;;;5.30;;
62151;SDS011;48139;47.474;19.034;2022-12-07T13:47:17;8.93;;;4.90;;
62151;SDS011;48139;47.474;19.034;2022-12-07T13:50:22;10.57;;;5.85;;
62151;SDS011;48139;47.474;19.034;2022-12-07T13:53:27;12.73;;;5.75;;
62151;SDS011;48139;47.474;19.034;2022-12-07T13:56:33;11.32;;;5.57;;
62151;SDS011;48139;47.474;19.034;2022-12-07T13:59:46;8.85;;;5.43;;
62151;SDS011;48139;47.474;19.034;2022-12-07T14:06:14;8.95;;;5.28;;
62151;SDS011;48139;47.474;19.034;2022-12-07T14:09:18;11.32;;;6.85;;
62151;SDS011;48139;47.474;19.034;2022-12-07T14:12:25;14.18;;;6.97;;
62151;SDS011;48139;47.474;19.034;2022-12-07T14:21:37;12.95;;;6.28;;
62151;SDS011;48139;47.474;19.034;2022-12-07T14:24:43;14.15;;;7.75;;
62151;SDS011;48139;47.474;19.034;2022-12-07T14:31:47;15.00;;;8.73;;
62151;SDS011;48139;47.474;19.034;2022-12-07T14:38:02;13.95;;;7.18;;
62151;SDS011;48139;47.474;19.034;2022-12-07T14:41:05;13.60;;;7.25;;
62151;SDS011;48139;47.474;19.034;2022-12-07T14:44:34;12.35;;;6.82;;
62151;SDS011;48139;47.474;19.034;2022-12-07T14:47:37;13.53;;;7.20;;
62151;SDS011;48139;47.474;19.034;2022-12-07T14:50:59;13.57;;;7.18;;
62151;SDS011;48139;47.474;19.034;2022-12-07T14:54:21;13.52;;;8.15;;
62151;SDS011;48139;47.474;19.034;2022-12-07T14:57:29;13.82;;;7.55;;
62151;SDS011;48139;47.474;19.034;2022-12-07T15:00:31;16.83;;;7.05;;
62151;SDS011;48139;47.474;19.034;2022-12-07T15:03:35;15.38;;;7.65;;
62151;SDS011;48139;47.474;19.034;2022-12-07T15:06:40;14.60;;;7.37;;
62151;SDS011;48139;47.474;19.034;2022-12-07T15:09:46;14.70;;;7.62;;
62151;SDS011;48139;47.474;19.034;2022-12-07T15:12:49;14.30;;;7.95;;
62151;SDS011;48139;47.474;19.034;2022-12-07T15:15:52;12.68;;;7.53;;
62151;SDS011;48139;47.474;19.034;2022-12-07T15:18:56;14.85;;;7.30;;
62151;SDS011;48139;47.474;19.034;2022-12-07T15:22:20;14.87;;;8.38;;
62151;SDS011;48139;47.474;19.034;2022-12-07T15:25:22;13.62;;;8.45;;
62151;SDS011;48139;47.474;19.034;2022-12-07T15:28:25;14.82;;;9.82;;
62151;SDS011;48139;47.474;19.034;2022-12-07T15:31:28;13.38;;;8.70;;
62151;SDS011;48139;47.474;19.034;2022-12-07T15:34:51;14.20;;;8.55;;
62151;SDS011;48139;47.474;19.034;2022-12-07T15:37:53;17.60;;;9.13;;
62151;SDS011;48139;47.474;19.034;2022-12-07T15:40:56;14.98;;;9.70;;
62151;SDS011;48139;47.474;19.034;2022-12-07T15:43:58;16.07;;;7.90;;
62151;SDS011;48139;47.474;19.034;2022-12-07T15:47:20;14.77;;;8.57;;
62151;SDS011;48139;47.474;19.034;2022-12-07T15:50:22;14.02;;;8.13;;
62151;SDS011;48139;47.474;19.034;2022-12-07T15:53:25;14.80;;;8.77;;
62151;SDS011;48139;47.474;19.034;2022-12-07T15:56:27;15.27;;;9.68;;
62151;SDS011;48139;47.474;19.034;2022-12-07T15:59:30;20.55;;;9.55;;
62151;SDS011;48139;47.474;19.034;2022-12-07T16:02:32;18.05;;;9.63;;
62151;SDS011;48139;47.474;19.034;2022-12-07T16:05:41;13.62;;;7.87;;
62151;SDS011;48139;47.474;19.034;2022-12-07T16:08:44;16.10;;;9.07;;
62151;SDS011;48139;47.474;19.034;2022-12-07T16:14:49;15.52;;;9.70;;
62151;SDS011;48139;47.474;19.034;2022-12-07T16:17:52;18.47;;;9.47;;
62151;SDS011;48139;47.474;19.034;2022-12-07T16:20:55;19.30;;;9.95;;
62151;SDS011;48139;47.474;19.034;2022-12-07T16:23:58;20.60;;;11.60;;
62151;SDS011;48139;47.474;19.034;2022-12-07T16:27:01;19.17;;;11.82;;
62151;SDS011;48139;47.474;19.034;2022-12-07T16:30:04;17.77;;;11.80;;
62151;SDS011;48139;47.474;19.034;2022-12-07T16:33:07;22.95;;;11.88;;
62151;SDS011;48139;47.474;19.034;2022-12-07T16:36:10;20.13;;;11.70;;
62151;SDS011;48139;47.474;19.034;2022-12-07T16:39:14;22.65;;;11.00;;
62151;SDS011;48139;47.474;19.034;2022-12-07T16:42:17;22.60;;;11.05;;
62151;SDS011;48139;47.474;19.034;2022-12-07T16:45:19;20.98;;;10.75;;
62151;SDS011;48139;47.474;19.034;2022-12-07T16:48:23;19.73;;;9.88;;
